createdAt,value
2017-09-10T00:03:58.504Z,18.61
2017-09-10T00:06:42.051Z,18.72
2017-09-10T00:10:21.227Z,18.68
2017-09-10T00:13:07.077Z,18.62
2017-09-10T00:16:01.471Z,18.52
2017-09-10T00:24:12.565Z,18.43
2017-09-10T00:28:26.755Z,18.52
2017-09-10T00:31:22.496Z,18.55
2017-09-10T00:36:27.527Z,18.46
2017-09-10T00:48:09.305Z,18.53
2017-09-10T00:50:53.122Z,18.60
2017-09-10T00:53:46.962Z,18.56
2017-09-10T00:56:41.477Z,18.45
2017-09-10T01:07:30.764Z,18.48
2017-09-10T01:10:14.237Z,18.58
2017-09-10T01:13:08.102Z,18.53
2017-09-10T01:28:11.027Z,18.67
2017-09-10T01:31:04.810Z,18.61
2017-09-10T01:33:59.238Z,18.48
2017-09-10T01:46:19.059Z,18.49
2017-09-10T01:49:02.634Z,18.57
2017-09-10T02:08:18.245Z,18.49
2017-09-10T02:11:01.711Z,18.57
2017-09-10T02:13:55.677Z,18.51
2017-09-10T02:23:59.547Z,18.40
2017-09-10T02:26:43.048Z,18.46
2017-09-10T02:29:36.912Z,18.39
2017-09-10T02:42:52.833Z,18.40
2017-09-10T02:52:34.336Z,18.55
2017-09-10T02:55:17.855Z,18.58
2017-09-10T02:58:34.312Z,18.46
2017-09-10T03:15:29.577Z,18.52
2017-09-10T03:18:12.851Z,18.55
2017-09-10T03:21:06.741Z,18.45
2017-09-10T03:42:17.281Z,18.53
2017-09-10T03:45:00.563Z,18.55
2017-09-10T04:01:05.156Z,18.44
2017-09-10T04:03:48.499Z,18.45
2017-09-10T04:21:46.272Z,18.44
2017-09-10T04:24:29.638Z,18.45
2017-09-10T04:47:26.221Z,18.46
2017-09-10T05:09:09.860Z,18.42
2017-09-10T05:33:32.656Z,18.62
2017-09-10T05:48:52.998Z,18.69
2017-09-10T05:51:36.356Z,18.69
2017-09-10T06:12:34.826Z,18.86
2017-09-10T06:15:18.242Z,18.89
2017-09-10T06:18:11.999Z,18.78
2017-09-10T06:21:17.639Z,18.61
2017-09-10T06:40:19.167Z,18.85
2017-09-10T06:43:02.573Z,18.90
2017-09-10T06:45:56.257Z,18.82
2017-09-10T06:48:50.761Z,18.68
2017-09-10T07:04:33.582Z,18.96
2017-09-10T07:08:36.152Z,19.03
2017-09-10T07:21:42.150Z,19.28
2017-09-10T07:27:19.492Z,19.27
2017-09-10T07:42:17.146Z,19.48
2017-09-10T07:45:00.708Z,19.56
2017-09-10T07:47:54.498Z,19.50
2017-09-10T07:50:48.979Z,19.38
2017-09-10T08:01:04.267Z,19.38
2017-09-10T08:03:47.843Z,19.48
2017-09-10T08:07:26.919Z,19.42
2017-09-10T08:18:52.623Z,19.60
2017-09-10T08:21:36.111Z,19.69
2017-09-10T08:24:30.075Z,19.66
2017-09-10T08:36:26.994Z,19.84
2017-09-10T08:39:10.513Z,19.93
2017-09-10T08:42:04.488Z,19.91
2017-09-10T08:44:58.964Z,19.81
2017-09-10T08:48:16.301Z,19.72
2017-09-10T08:51:04.291Z,19.67
2017-09-10T09:00:11.994Z,19.88
2017-09-10T09:02:55.733Z,20.05
2017-09-10T09:05:49.868Z,20.12
2017-09-10T09:09:52.414Z,20.11
2017-09-10T09:12:37.665Z,20.13
2017-09-10T09:15:32.262Z,20.16
2017-09-10T09:18:27.268Z,20.26
2017-09-10T09:21:22.396Z,20.40
2017-09-10T09:24:17.748Z,20.56
2017-09-10T09:27:12.999Z,20.68
2017-09-10T09:30:08.224Z,20.87
2017-09-10T09:33:03.391Z,21.00
2017-09-10T09:35:58.581Z,21.04
2017-09-10T09:38:53.889Z,21.12
2017-09-10T09:41:49.353Z,21.26
2017-09-10T09:44:44.595Z,21.38
2017-09-10T09:47:39.856Z,21.49
2017-09-10T09:50:35.277Z,21.63
2017-09-10T09:53:30.656Z,21.86
2017-09-10T09:56:26.019Z,22.05
2017-09-10T09:59:21.608Z,22.28
2017-09-10T10:02:16.802Z,22.38
2017-09-10T10:05:12.104Z,22.44
2017-09-10T10:08:07.357Z,22.50
2017-09-10T10:11:02.869Z,22.53
2017-09-10T10:13:58.119Z,22.51
2017-09-10T10:16:53.241Z,22.55
2017-09-10T10:22:43.872Z,22.62
2017-09-10T10:25:39.269Z,22.57
2017-09-10T10:28:34.531Z,22.58
2017-09-10T10:31:29.827Z,22.52
2017-09-10T10:34:24.891Z,22.41
2017-09-10T10:37:19.974Z,22.25
2017-09-10T10:40:14.941Z,22.10
2017-09-10T10:43:10.077Z,21.98
2017-09-10T10:46:05.216Z,21.90
2017-09-10T10:49:00.320Z,21.84
2017-09-10T10:51:55.382Z,21.79
2017-09-10T10:54:50.505Z,21.76
2017-09-10T10:57:45.656Z,21.73
2017-09-10T11:00:40.696Z,21.89
2017-09-10T11:03:35.719Z,21.62
2017-09-10T11:06:30.703Z,21.58
2017-09-10T11:12:20.965Z,21.46
2017-09-10T11:15:15.907Z,21.40
2017-09-10T11:21:06.102Z,21.28
2017-09-10T11:24:01.290Z,21.25
2017-09-10T11:26:56.276Z,21.22
2017-09-10T11:29:51.339Z,21.19
2017-09-10T11:35:41.561Z,21.08
2017-09-10T11:38:36.656Z,21.05
2017-09-10T11:41:31.680Z,21.01
2017-09-10T11:44:26.770Z,20.98
2017-09-10T11:50:16.741Z,20.91
2017-09-10T11:53:11.815Z,20.90
2017-09-10T11:56:06.841Z,20.88
2017-09-10T11:59:01.872Z,20.86
2017-09-10T12:01:56.899Z,20.82
2017-09-10T12:07:47.047Z,20.78
2017-09-10T12:10:42.100Z,20.76
2017-09-10T12:13:37.044Z,20.74
2017-09-10T12:16:32.054Z,20.73
2017-09-10T12:19:27.182Z,20.72
2017-09-10T12:22:22.217Z,20.71
2017-09-10T12:28:12.335Z,20.69
2017-09-10T12:31:07.335Z,20.68
2017-09-10T12:34:02.390Z,20.68
2017-09-10T12:36:57.397Z,20.67
2017-09-10T12:39:52.370Z,20.66
2017-09-10T12:42:47.304Z,20.65
2017-09-10T12:45:42.816Z,20.65
2017-09-10T12:48:37.850Z,20.65
2017-09-10T12:51:32.870Z,20.65
2017-09-10T12:54:27.977Z,20.64
2017-09-10T12:57:22.973Z,20.64
2017-09-10T13:00:17.971Z,20.63
2017-09-10T13:03:12.949Z,20.63
2017-09-10T13:06:08.027Z,20.63
2017-09-10T13:09:03.017Z,20.62
2017-09-10T13:11:58.014Z,20.62
2017-09-10T13:17:48.282Z,20.62
2017-09-10T13:20:43.246Z,20.63
2017-09-10T13:26:33.365Z,20.63
2017-09-10T13:29:28.272Z,20.64
2017-09-10T13:32:23.186Z,20.65
2017-09-10T13:35:18.229Z,20.64
2017-09-10T13:38:13.138Z,20.63
2017-09-10T13:41:08.157Z,20.62
2017-09-10T13:44:03.131Z,20.62
2017-09-10T13:46:58.157Z,20.62
2017-09-10T13:49:53.302Z,20.61
2017-09-10T13:52:48.308Z,20.61
2017-09-10T13:55:43.343Z,20.60
2017-09-10T13:58:38.325Z,20.59
2017-09-10T14:01:33.417Z,20.60
2017-09-10T14:04:28.446Z,20.60
2017-09-10T14:07:23.442Z,20.61
2017-09-10T14:10:18.572Z,20.61
2017-09-10T14:13:13.492Z,20.62
2017-09-10T14:16:08.543Z,20.63
2017-09-10T14:21:58.557Z,20.62
2017-09-10T14:24:53.657Z,20.62
2017-09-10T14:27:48.669Z,20.62
2017-09-10T14:33:38.798Z,20.61
2017-09-10T14:36:33.833Z,20.61
2017-09-10T14:39:28.844Z,20.60
2017-09-10T14:42:23.925Z,20.59
2017-09-10T14:45:18.984Z,20.59
2017-09-10T14:48:14.094Z,20.58
2017-09-10T14:51:09.215Z,20.57
2017-09-10T14:54:04.334Z,20.57
2017-09-10T14:56:59.561Z,20.57
2017-09-10T14:59:54.675Z,20.58
2017-09-10T15:02:49.711Z,20.59
2017-09-10T15:05:44.832Z,20.61
2017-09-10T15:08:39.833Z,20.61
2017-09-10T15:11:34.940Z,20.61
2017-09-10T15:14:30.015Z,20.62
2017-09-10T15:17:25.056Z,20.63
2017-09-10T15:20:20.167Z,20.63
2017-09-10T15:23:15.215Z,20.64
2017-09-10T15:26:10.195Z,20.65
2017-09-10T15:29:05.304Z,20.66
2017-09-10T15:34:55.961Z,20.65
2017-09-10T15:37:50.998Z,20.64
2017-09-10T15:40:46.101Z,20.63
2017-09-10T15:43:41.156Z,20.62
2017-09-10T15:46:36.160Z,20.61
2017-09-10T15:49:31.138Z,20.60
2017-09-10T15:52:26.225Z,20.60
2017-09-10T15:55:21.262Z,20.60
2017-09-10T15:58:16.249Z,20.60
2017-09-10T16:01:11.156Z,20.61
2017-09-10T16:04:06.220Z,20.61
2017-09-10T16:07:01.191Z,20.60
2017-09-10T16:09:56.288Z,20.60
2017-09-10T16:12:51.457Z,20.58
2017-09-10T16:15:46.485Z,20.57
2017-09-10T16:18:41.583Z,20.55
2017-09-10T16:21:36.793Z,20.54
2017-09-10T16:24:31.860Z,20.52
2017-09-10T16:27:26.784Z,20.51
2017-09-10T16:30:21.810Z,20.50
2017-09-10T16:33:16.721Z,20.48
2017-09-10T16:36:11.795Z,20.46
2017-09-10T16:39:06.914Z,20.45
2017-09-10T16:42:02.025Z,20.44
2017-09-10T16:44:57.064Z,20.43
2017-09-10T16:47:52.164Z,20.41
2017-09-10T16:50:47.236Z,20.40
2017-09-10T16:56:37.361Z,20.37
2017-09-10T16:59:32.454Z,20.35
2017-09-10T17:02:27.560Z,20.33
2017-09-10T17:05:22.540Z,20.32
2017-09-10T17:08:17.554Z,20.30
2017-09-10T17:11:12.625Z,20.29
2017-09-10T17:14:07.674Z,20.27
2017-09-10T17:19:57.777Z,20.22
2017-09-10T17:22:52.894Z,20.19
2017-09-10T17:25:48.005Z,20.15
2017-09-10T17:28:42.764Z,20.12
2017-09-10T17:31:37.890Z,20.07
2017-09-10T17:34:32.929Z,20.03
2017-09-10T17:37:28.067Z,19.99
2017-09-10T17:40:22.854Z,19.95
2017-09-10T17:43:17.902Z,19.90
2017-09-10T17:46:12.891Z,19.86
2017-09-10T17:49:07.820Z,19.80
2017-09-10T17:52:02.821Z,19.74
2017-09-10T17:54:57.776Z,19.69
2017-09-10T17:57:52.677Z,19.63
2017-09-10T18:00:47.768Z,19.58
2017-09-10T18:03:42.571Z,19.53
2017-09-10T18:06:37.593Z,19.47
2017-09-10T18:09:32.528Z,19.40
2017-09-10T18:12:27.382Z,19.35
2017-09-10T18:15:22.523Z,19.30
2017-09-10T18:18:17.458Z,19.25
2017-09-10T18:21:12.280Z,19.20
2017-09-10T18:24:07.225Z,19.17
2017-09-10T18:27:02.083Z,19.13
2017-09-10T18:29:57.027Z,19.11
2017-09-10T18:32:51.886Z,19.09
2017-09-10T18:35:46.763Z,19.07
2017-09-10T18:38:41.736Z,19.05
2017-09-10T18:41:36.594Z,19.03
2017-09-10T18:44:31.511Z,19.02
2017-09-10T18:47:26.424Z,19.02
2017-09-10T18:50:21.358Z,19.01
2017-09-10T18:53:16.287Z,19.00
2017-09-10T18:56:11.263Z,19.00
2017-09-10T18:59:06.024Z,18.99
2017-09-10T19:02:00.936Z,18.98
2017-09-10T19:04:55.822Z,18.97
2017-09-10T19:07:50.634Z,18.96
2017-09-10T19:10:45.556Z,18.95
2017-09-10T19:13:40.465Z,18.93
2017-09-10T19:19:30.407Z,18.87
2017-09-10T19:22:25.018Z,18.84
2017-09-10T19:25:19.882Z,18.81
2017-09-10T19:28:14.777Z,18.78
2017-09-10T19:31:09.603Z,18.75
2017-09-10T19:34:04.540Z,18.73
2017-09-10T19:36:59.331Z,18.70
2017-09-10T19:39:54.165Z,18.67
2017-09-10T19:42:49.019Z,18.65
2017-09-10T19:45:43.793Z,18.61
2017-09-10T19:48:38.579Z,18.56
2017-09-10T19:51:33.407Z,18.51
2017-09-10T19:54:28.173Z,18.45
2017-09-10T19:57:22.931Z,18.40
2017-09-10T20:00:17.665Z,18.36
2017-09-10T20:03:12.561Z,18.34
2017-09-10T20:06:07.324Z,18.32
2017-09-10T20:09:02.115Z,18.31
2017-09-10T20:11:56.863Z,18.30
2017-09-10T20:14:51.536Z,18.28
2017-09-10T20:17:46.348Z,18.27
2017-09-10T20:20:41.038Z,18.25
2017-09-10T20:23:35.827Z,18.23
2017-09-10T20:26:30.752Z,18.21
2017-09-10T20:29:25.378Z,18.19
2017-09-10T20:32:20.199Z,18.16
2017-09-10T20:35:14.898Z,18.14
2017-09-10T20:38:09.615Z,18.11
2017-09-10T20:41:04.289Z,18.09
2017-09-10T20:43:58.983Z,18.06
2017-09-10T20:46:53.664Z,18.04
2017-09-10T20:49:48.235Z,18.02
2017-09-10T20:52:43.008Z,18.00
2017-09-10T20:55:37.672Z,17.98
2017-09-10T20:58:32.336Z,17.96
2017-09-10T21:01:26.968Z,17.94
2017-09-10T21:04:21.643Z,17.91
2017-09-10T21:07:16.320Z,17.89
2017-09-10T21:10:10.914Z,17.87
2017-09-10T21:13:05.496Z,17.84
2017-09-10T21:16:00.162Z,17.83
2017-09-10T21:18:54.936Z,17.81
2017-09-10T21:21:49.435Z,17.79
2017-09-10T21:24:43.921Z,17.77
2017-09-10T21:27:38.781Z,17.75
2017-09-10T21:30:33.306Z,17.73
2017-09-10T21:33:27.778Z,17.71
2017-09-10T21:36:22.188Z,17.69
2017-09-10T21:39:16.605Z,17.67
2017-09-10T21:42:11.287Z,17.64
2017-09-10T21:45:05.980Z,17.62
2017-09-10T21:48:00.597Z,17.59
2017-09-10T21:50:55.020Z,17.57
2017-09-10T21:53:49.508Z,17.54
2017-09-10T21:56:44.139Z,17.51
2017-09-10T21:59:38.560Z,17.48
2017-09-10T22:02:33.125Z,17.46
2017-09-10T22:05:27.677Z,17.43
2017-09-10T22:08:22.285Z,17.41
2017-09-10T22:11:17.124Z,17.38
2017-09-10T22:14:11.696Z,17.35
2017-09-10T22:17:06.202Z,17.33
2017-09-10T22:20:00.821Z,17.31
2017-09-10T22:22:55.732Z,17.28
2017-09-10T22:25:50.352Z,17.27
2017-09-10T22:28:44.901Z,17.26
2017-09-10T22:31:39.443Z,17.24
2017-09-10T22:34:34.032Z,17.23
2017-09-10T22:37:28.710Z,17.22
2017-09-10T22:40:23.243Z,17.21
2017-09-10T22:43:17.737Z,17.20
2017-09-10T22:46:12.238Z,17.18
2017-09-10T22:49:06.918Z,17.16
2017-09-10T22:52:01.515Z,17.15
2017-09-10T22:54:56.245Z,17.13
2017-09-10T22:57:50.717Z,17.11
2017-09-10T23:00:45.248Z,17.09
2017-09-10T23:03:39.722Z,17.07
2017-09-10T23:06:34.396Z,17.05
2017-09-10T23:09:29.023Z,17.05
2017-09-10T23:12:23.751Z,17.03
2017-09-10T23:15:18.341Z,17.01
2017-09-10T23:18:12.973Z,16.98
2017-09-10T23:21:07.445Z,16.97
2017-09-10T23:24:01.938Z,16.95
2017-09-10T23:26:56.450Z,16.94
2017-09-10T23:29:50.965Z,16.91
2017-09-10T23:32:45.525Z,16.89
2017-09-10T23:35:40.091Z,16.86
2017-09-10T23:38:34.584Z,16.84
2017-09-10T23:41:29.248Z,16.81
2017-09-10T23:44:23.827Z,16.79
2017-09-10T23:50:13.092Z,16.75
2017-09-10T23:53:07.719Z,16.74
2017-09-10T23:56:02.597Z,16.73
2017-09-10T23:58:57.138Z,16.71
